createdAt,value
2022-07-26T00:01:39.240Z,16.47
2022-07-26T00:04:07.753Z,14.37
2022-07-26T00:06:35.425Z,10.20
2022-07-26T00:09:02.905Z,10.30
2022-07-26T00:11:33.616Z,7.93
2022-07-26T00:14:02.519Z,8.70
2022-07-26T00:16:30.534Z,12.40
2022-07-26T00:18:58.019Z,7.53
2022-07-26T00:21:25.720Z,7.93
2022-07-26T00:23:53.278Z,12.37
2022-07-26T00:26:20.666Z,10.03
2022-07-26T00:28:48.373Z,8.80
2022-07-26T00:31:17.187Z,9.10
2022-07-26T00:33:44.588Z,8.57
2022-07-26T00:36:12.263Z,7.17
2022-07-26T00:38:40.466Z,7.60
2022-07-26T00:41:09.162Z,8.97
2022-07-26T00:43:36.713Z,11.27
2022-07-26T00:46:04.521Z,10.33
2022-07-26T00:48:33.309Z,7.23
2022-07-26T00:51:00.770Z,7.80
2022-07-26T00:53:28.153Z,7.47
2022-07-26T00:55:55.690Z,6.60
2022-07-26T00:58:23.424Z,8.63
2022-07-26T01:00:50.882Z,7.43
2022-07-26T01:03:18.326Z,6.47
2022-07-26T01:05:47.054Z,6.43
2022-07-26T01:08:14.501Z,7.17
2022-07-26T01:10:43.719Z,9.57
2022-07-26T01:13:11.281Z,6.73
2022-07-26T01:15:38.779Z,6.30
2022-07-26T01:18:06.246Z,5.40
2022-07-26T01:20:33.967Z,11.53
2022-07-26T01:23:02.887Z,9.37
2022-07-26T01:25:30.839Z,10.53
2022-07-26T01:27:58.287Z,8.17
2022-07-26T01:30:25.728Z,11.80
2022-07-26T01:32:53.192Z,9.87
2022-07-26T01:35:20.587Z,6.40
2022-07-26T01:37:48.301Z,10.13
2022-07-26T01:40:17.037Z,7.23
2022-07-26T01:42:44.428Z,8.00
2022-07-26T01:45:12.566Z,6.20
2022-07-26T01:47:40.352Z,7.97
2022-07-26T01:50:08.705Z,6.90
2022-07-26T01:52:37.281Z,9.17
2022-07-26T01:55:04.981Z,8.20
2022-07-26T01:57:33.737Z,8.27
2022-07-26T02:00:01.170Z,7.67
2022-07-26T02:02:29.644Z,6.13
2022-07-26T02:04:59.806Z,5.70
2022-07-26T02:07:27.311Z,7.10
2022-07-26T02:09:54.732Z,10.57
2022-07-26T02:12:22.446Z,7.23
2022-07-26T02:14:52.106Z,7.17
2022-07-26T02:17:19.526Z,8.37
2022-07-26T02:19:47.053Z,8.37
2022-07-26T02:22:14.431Z,9.33
2022-07-26T02:24:41.920Z,6.63
2022-07-26T02:27:09.702Z,6.53
2022-07-26T02:29:37.096Z,4.53
2022-07-26T02:32:06.703Z,9.23
2022-07-26T02:34:34.534Z,7.33
2022-07-26T02:37:02.059Z,6.80
2022-07-26T02:39:29.466Z,6.67
2022-07-26T02:41:57.938Z,6.40
2022-07-26T02:44:25.628Z,7.03
2022-07-26T02:46:53.165Z,7.13
2022-07-26T02:49:22.424Z,6.03
2022-07-26T02:51:49.834Z,6.23
2022-07-26T02:54:17.677Z,4.67
2022-07-26T02:56:45.052Z,4.37
2022-07-26T02:59:12.423Z,7.27
2022-07-26T03:01:40.116Z,6.83
2022-07-26T03:04:08.937Z,10.77
2022-07-26T03:06:37.988Z,6.33
2022-07-26T03:09:05.411Z,6.80
2022-07-26T03:11:32.795Z,5.90
2022-07-26T03:14:00.190Z,8.53
2022-07-26T03:16:29.862Z,5.93
2022-07-26T03:18:57.570Z,6.20
2022-07-26T03:21:24.974Z,6.93
2022-07-26T03:23:53.688Z,4.87
2022-07-26T03:26:21.105Z,4.93
2022-07-26T03:28:48.491Z,5.47
2022-07-26T03:31:15.992Z,6.77
2022-07-26T03:33:43.445Z,8.87
2022-07-26T03:36:12.843Z,7.73
2022-07-26T03:38:43.185Z,5.30
2022-07-26T03:41:13.717Z,3.70
2022-07-26T03:43:41.300Z,6.10
2022-07-26T03:46:08.821Z,9.50
2022-07-26T03:48:36.346Z,9.10
2022-07-26T03:51:03.764Z,6.30
2022-07-26T03:53:31.208Z,5.10
2022-07-26T03:56:17.305Z,5.97
2022-07-26T03:58:46.047Z,8.97
2022-07-26T04:01:13.479Z,6.80
2022-07-26T04:03:45.711Z,6.23
2022-07-26T04:06:15.033Z,5.20
2022-07-26T04:08:43.069Z,10.53
2022-07-26T04:11:10.478Z,10.23
2022-07-26T04:13:37.936Z,5.50
2022-07-26T04:16:07.293Z,8.93
2022-07-26T04:18:34.708Z,6.37
2022-07-26T04:21:02.191Z,9.27
2022-07-26T04:23:29.574Z,5.30
2022-07-26T04:25:56.942Z,6.90
2022-07-26T04:28:26.725Z,8.10
2022-07-26T04:30:54.152Z,4.87
2022-07-26T04:33:22.881Z,10.30
2022-07-26T04:35:50.332Z,9.57
2022-07-26T04:38:18.686Z,6.73
2022-07-26T04:40:46.226Z,8.27
2022-07-26T04:43:15.503Z,7.77
2022-07-26T04:45:43.613Z,8.70
2022-07-26T04:48:11.026Z,8.80
2022-07-26T04:50:39.761Z,6.50
2022-07-26T04:53:07.194Z,6.93
2022-07-26T04:55:34.687Z,8.87
2022-07-26T04:58:02.089Z,5.80
2022-07-26T05:00:29.491Z,7.63
2022-07-26T05:02:58.319Z,8.50
2022-07-26T05:05:27.166Z,8.50
2022-07-26T05:07:56.694Z,8.57
2022-07-26T05:10:31.331Z,7.10
2022-07-26T05:12:58.759Z,7.17
2022-07-26T05:15:35.082Z,5.83
2022-07-26T05:18:06.864Z,9.37
2022-07-26T05:20:35.134Z,7.93
2022-07-26T05:23:03.983Z,8.20
2022-07-26T05:25:31.411Z,10.40
2022-07-26T05:27:58.815Z,6.30
2022-07-26T05:30:26.315Z,8.53
2022-07-26T05:32:53.786Z,6.00
2022-07-26T05:35:21.289Z,6.03
2022-07-26T05:37:48.701Z,6.30
2022-07-26T05:40:17.592Z,10.47
2022-07-26T05:42:45.286Z,7.60
2022-07-26T05:45:12.806Z,7.13
2022-07-26T05:47:40.402Z,5.93
2022-07-26T05:50:08.239Z,5.27
2022-07-26T05:52:35.611Z,8.33
2022-07-26T05:55:03.067Z,10.37
2022-07-26T05:57:31.799Z,7.63
2022-07-26T05:59:59.217Z,5.67
2022-07-26T06:02:26.667Z,5.13
2022-07-26T06:04:54.158Z,6.53
2022-07-26T06:07:21.595Z,3.97
2022-07-26T06:09:48.969Z,6.07
2022-07-26T06:12:16.372Z,5.53
2022-07-26T06:14:45.356Z,6.33
2022-07-26T06:17:12.784Z,6.23
2022-07-26T06:19:44.290Z,6.53
2022-07-26T06:22:14.594Z,11.50
2022-07-26T06:24:41.968Z,7.77
2022-07-26T06:27:09.395Z,7.40
2022-07-26T06:29:36.769Z,4.33
2022-07-26T06:32:05.683Z,4.53
2022-07-26T06:34:33.125Z,3.97
2022-07-26T06:37:00.655Z,3.43
2022-07-26T06:39:28.034Z,3.23
2022-07-26T06:41:55.634Z,3.83
2022-07-26T06:44:23.805Z,4.77
2022-07-26T06:46:51.234Z,4.53
2022-07-26T06:49:22.660Z,5.13
2022-07-26T06:51:50.759Z,4.23
2022-07-26T06:54:18.159Z,3.37
2022-07-26T06:56:45.660Z,5.47
2022-07-26T06:59:13.076Z,4.20
2022-07-26T07:01:58.168Z,8.47
2022-07-26T07:04:28.664Z,5.70
2022-07-26T07:06:57.384Z,4.73
2022-07-26T07:09:25.506Z,7.17
2022-07-26T07:11:57.395Z,4.00
2022-07-26T07:14:28.146Z,5.53
2022-07-26T07:16:56.513Z,5.17
2022-07-26T07:19:24.131Z,4.10
2022-07-26T07:21:52.846Z,5.70
2022-07-26T07:24:20.595Z,4.43
2022-07-26T07:26:48.019Z,3.47
2022-07-26T07:29:17.428Z,2.83
2022-07-26T07:31:48.998Z,8.13
2022-07-26T07:34:19.518Z,2.57
2022-07-26T07:36:47.392Z,3.93
2022-07-26T07:39:17.651Z,4.13
2022-07-26T07:41:45.415Z,3.27
2022-07-26T07:44:12.887Z,4.33
2022-07-26T07:46:40.555Z,3.43
2022-07-26T07:49:08.380Z,4.63
2022-07-26T07:51:36.465Z,4.00
2022-07-26T07:54:05.789Z,3.07
2022-07-26T07:56:34.720Z,3.90
2022-07-26T07:59:02.338Z,2.00
2022-07-26T08:01:39.500Z,6.00
2022-07-26T08:04:08.283Z,12.97
2022-07-26T08:06:35.894Z,2.97
2022-07-26T08:09:03.961Z,2.77
2022-07-26T08:11:35.315Z,2.60
2022-07-26T08:14:03.894Z,2.53
2022-07-26T08:16:31.419Z,5.50
2022-07-26T08:18:58.835Z,1.67
2022-07-26T08:21:27.496Z,3.10
2022-07-26T08:23:56.390Z,4.13
2022-07-26T08:26:23.765Z,2.83
2022-07-26T08:29:00.279Z,3.73
2022-07-26T08:31:28.027Z,3.50
2022-07-26T08:33:55.504Z,7.70
2022-07-26T08:36:22.901Z,1.50
2022-07-26T08:38:50.452Z,2.73
2022-07-26T08:41:18.355Z,2.53
2022-07-26T08:43:51.141Z,3.93
2022-07-26T08:46:25.832Z,6.20
2022-07-26T08:48:55.089Z,1.40
2022-07-26T08:51:23.886Z,3.63
2022-07-26T08:53:51.517Z,1.47
2022-07-26T08:56:18.940Z,2.93
2022-07-26T08:58:46.315Z,3.20
2022-07-26T09:01:14.198Z,2.63
2022-07-26T09:03:43.921Z,5.60
2022-07-26T09:06:12.335Z,1.07
2022-07-26T09:08:39.770Z,3.83
2022-07-26T09:11:22.123Z,2.13
2022-07-26T09:13:53.205Z,7.13
2022-07-26T09:16:20.894Z,1.70
2022-07-26T09:18:49.715Z,3.27
2022-07-26T09:21:27.202Z,3.17
2022-07-26T09:23:55.764Z,9.37
2022-07-26T09:26:26.155Z,3.00
2022-07-26T09:29:04.330Z,6.67
2022-07-26T09:31:32.001Z,3.40
2022-07-26T09:34:00.823Z,2.50
2022-07-26T09:36:28.698Z,2.17
2022-07-26T09:38:58.504Z,3.77
2022-07-26T09:41:27.075Z,5.00
2022-07-26T09:43:55.531Z,3.47
2022-07-26T09:46:23.332Z,3.23
2022-07-26T09:51:40.742Z,2.83
2022-07-26T09:54:09.045Z,2.07
2022-07-26T09:56:44.344Z,2.43
2022-07-26T09:59:13.109Z,3.50
2022-07-26T10:01:40.524Z,3.37
2022-07-26T10:04:08.482Z,2.40
2022-07-26T10:06:36.101Z,1.83
2022-07-26T10:09:05.592Z,3.33
2022-07-26T10:11:36.518Z,3.47
2022-07-26T10:14:18.818Z,4.30
2022-07-26T10:16:46.236Z,5.27
2022-07-26T10:19:37.789Z,2.23
2022-07-26T10:22:23.783Z,1.80
2022-07-26T10:24:57.752Z,3.63
2022-07-26T10:27:38.478Z,2.97
2022-07-26T10:30:31.547Z,1.90
2022-07-26T10:33:02.218Z,2.87
2022-07-26T10:35:32.928Z,2.83
2022-07-26T10:38:01.537Z,1.43
2022-07-26T10:40:31.015Z,3.40
2022-07-26T10:43:37.949Z,2.37
2022-07-26T10:46:10.731Z,2.47
2022-07-26T10:48:55.825Z,2.77
2022-07-26T10:51:25.491Z,4.03
2022-07-26T10:54:00.003Z,3.57
2022-07-26T10:56:33.069Z,3.07
2022-07-26T10:59:00.965Z,2.03
2022-07-26T11:01:33.368Z,1.13
2022-07-26T11:04:00.849Z,2.13
2022-07-26T11:06:28.821Z,2.10
2022-07-26T11:08:56.339Z,3.53
2022-07-26T11:11:30.238Z,1.23
2022-07-26T11:14:04.894Z,1.17
2022-07-26T11:16:37.294Z,3.63
2022-07-26T11:19:12.693Z,1.00
2022-07-26T11:21:41.222Z,1.60
2022-07-26T11:24:09.092Z,1.87
2022-07-26T11:26:42.925Z,1.17
2022-07-26T11:29:10.446Z,0.70
2022-07-26T11:31:49.745Z,3.67
2022-07-26T11:34:19.614Z,1.67
2022-07-26T11:36:47.632Z,3.20
2022-07-26T11:39:16.215Z,1.63
2022-07-26T11:41:44.939Z,0.80
2022-07-26T11:44:16.456Z,3.90
2022-07-26T11:46:47.553Z,1.57
2022-07-26T11:49:16.237Z,0.77
2022-07-26T11:51:50.985Z,1.90
2022-07-26T11:54:18.564Z,1.97
2022-07-26T11:56:54.156Z,2.80
2022-07-26T11:59:21.786Z,1.67
2022-07-26T12:01:49.778Z,2.60
2022-07-26T12:04:21.543Z,4.43
2022-07-26T12:06:49.432Z,1.60
2022-07-26T12:09:28.927Z,0.97
2022-07-26T12:11:57.714Z,2.17
2022-07-26T12:14:28.653Z,1.23
2022-07-26T12:16:56.062Z,4.30
2022-07-26T12:19:25.416Z,1.97
2022-07-26T12:21:53.602Z,2.30
2022-07-26T12:24:38.392Z,1.60
2022-07-26T12:27:08.766Z,1.17
2022-07-26T12:29:37.161Z,1.77
2022-07-26T12:32:12.089Z,0.97
2022-07-26T12:34:40.932Z,1.73
2022-07-26T12:37:12.609Z,0.87
2022-07-26T12:39:40.302Z,2.10
2022-07-26T12:42:33.463Z,2.87
2022-07-26T12:45:02.281Z,1.77
2022-07-26T12:47:29.708Z,0.63
2022-07-26T12:49:57.106Z,1.67
2022-07-26T12:52:24.944Z,0.87
2022-07-26T12:54:52.963Z,1.57
2022-07-26T12:57:20.896Z,2.10
2022-07-26T12:59:50.206Z,3.07
2022-07-26T13:02:18.504Z,0.37
2022-07-26T13:04:46.071Z,3.23
2022-07-26T13:07:13.575Z,1.77
2022-07-26T13:09:41.382Z,2.00
2022-07-26T13:12:09.856Z,1.23
2022-07-26T13:14:37.747Z,5.40
2022-07-26T13:17:07.403Z,0.70
2022-07-26T13:19:35.337Z,5.67
2022-07-26T13:22:03.325Z,2.23
2022-07-26T13:24:33.364Z,2.27
2022-07-26T13:27:01.039Z,3.50
2022-07-26T13:29:29.631Z,1.30
2022-07-26T13:31:58.136Z,3.30
2022-07-26T13:34:30.501Z,1.77
2022-07-26T13:37:01.967Z,2.90
2022-07-26T13:39:35.616Z,3.63
2022-07-26T13:42:03.037Z,4.27
2022-07-26T13:44:30.411Z,2.93
2022-07-26T13:46:57.822Z,3.20
2022-07-26T13:49:25.290Z,2.27
2022-07-26T13:51:59.886Z,3.10
2022-07-26T13:54:28.306Z,5.23
2022-07-26T13:56:56.177Z,3.20
2022-07-26T13:59:23.684Z,2.73
2022-07-26T14:01:51.237Z,1.30
2022-07-26T14:04:20.190Z,4.43
2022-07-26T14:06:47.639Z,5.43
2022-07-26T14:09:16.691Z,3.73
2022-07-26T14:11:44.650Z,1.50
2022-07-26T14:14:12.518Z,3.10
2022-07-26T14:16:40.573Z,2.03
2022-07-26T14:19:08.167Z,1.83
2022-07-26T14:21:43.524Z,1.27
2022-07-26T14:24:16.652Z,1.10
2022-07-26T14:26:48.264Z,3.77
2022-07-26T14:29:15.654Z,3.03
2022-07-26T14:31:44.674Z,2.40
2022-07-26T14:34:12.374Z,2.33
2022-07-26T14:36:40.040Z,1.57
2022-07-26T14:39:07.439Z,1.87
2022-07-26T14:41:36.233Z,1.97
2022-07-26T14:44:04.683Z,3.17
2022-07-26T14:46:32.136Z,1.80
2022-07-26T14:48:59.763Z,2.17
2022-07-26T14:51:27.219Z,1.57
2022-07-26T14:53:54.710Z,2.60
2022-07-26T14:56:22.362Z,1.20
2022-07-26T14:58:51.193Z,3.20
2022-07-26T15:01:18.633Z,1.63
2022-07-26T15:03:46.127Z,3.33
2022-07-26T15:06:13.506Z,1.13
2022-07-26T15:08:40.885Z,3.87
2022-07-26T15:11:08.316Z,1.97
2022-07-26T15:13:36.158Z,2.43
2022-07-26T15:16:05.115Z,1.83
2022-07-26T15:18:32.626Z,2.43
2022-07-26T15:21:00.056Z,1.20
2022-07-26T15:23:27.433Z,3.17
2022-07-26T15:25:54.962Z,1.53
2022-07-26T15:28:22.334Z,3.20
2022-07-26T15:30:49.771Z,2.90
2022-07-26T15:33:20.552Z,2.50
2022-07-26T15:35:48.000Z,2.77
2022-07-26T15:38:15.368Z,4.93
2022-07-26T15:40:42.860Z,2.20
2022-07-26T15:43:10.613Z,3.03
2022-07-26T15:45:40.925Z,1.70
2022-07-26T15:48:17.100Z,2.63
2022-07-26T15:50:49.846Z,1.50
2022-07-26T15:53:17.391Z,3.20
2022-07-26T15:55:44.932Z,3.47
2022-07-26T15:58:13.155Z,5.77
2022-07-26T16:00:40.708Z,2.00
2022-07-26T16:03:08.136Z,2.60
2022-07-26T16:05:35.583Z,2.07
2022-07-26T16:08:04.416Z,5.73
2022-07-26T16:10:31.818Z,1.87
2022-07-26T16:12:59.314Z,2.90
2022-07-26T16:15:26.803Z,3.90
2022-07-26T16:17:54.170Z,7.33
2022-07-26T16:20:21.646Z,3.40
2022-07-26T16:22:49.137Z,4.43
2022-07-26T16:25:17.853Z,2.83
2022-07-26T16:27:45.317Z,5.23
2022-07-26T16:30:13.599Z,3.43
2022-07-26T16:32:40.983Z,5.13
2022-07-26T16:35:09.073Z,3.67
2022-07-26T16:37:36.458Z,3.10
2022-07-26T16:40:04.424Z,3.53
2022-07-26T16:42:33.226Z,3.20
2022-07-26T16:45:00.678Z,3.20
2022-07-26T16:47:28.059Z,4.77
2022-07-26T16:49:55.451Z,2.87
2022-07-26T16:52:22.850Z,4.07
2022-07-26T16:54:50.263Z,3.30
2022-07-26T16:57:17.665Z,3.27
2022-07-26T16:59:46.576Z,3.90
2022-07-26T17:02:14.100Z,3.67
2022-07-26T17:04:41.666Z,5.37
2022-07-26T17:07:24.565Z,4.83
2022-07-26T17:09:53.247Z,3.00
2022-07-26T17:12:20.634Z,5.27
2022-07-26T17:14:49.381Z,3.90
2022-07-26T17:17:16.786Z,3.50
2022-07-26T17:19:44.179Z,3.30
2022-07-26T17:22:11.591Z,2.80
2022-07-26T17:24:39.011Z,3.73
2022-07-26T17:27:06.399Z,2.20
2022-07-26T17:29:33.867Z,3.07
2022-07-26T17:32:02.576Z,2.80
2022-07-26T17:34:29.996Z,8.43
2022-07-26T17:36:58.305Z,6.00
2022-07-26T17:39:25.987Z,4.23
2022-07-26T17:42:13.452Z,5.30
2022-07-26T17:44:43.346Z,2.47
2022-07-26T17:47:18.116Z,3.77
2022-07-26T17:49:57.103Z,3.90
2022-07-26T17:52:26.463Z,2.83
2022-07-26T17:54:57.055Z,3.37
2022-07-26T17:57:24.560Z,4.63
2022-07-26T17:59:51.963Z,3.03
2022-07-26T18:02:21.508Z,7.77
2022-07-26T18:04:49.109Z,3.03
2022-07-26T18:07:16.860Z,3.10
2022-07-26T18:09:44.234Z,3.03
2022-07-26T18:12:11.628Z,2.53
2022-07-26T18:14:39.201Z,5.73
2022-07-26T18:17:06.588Z,2.90
2022-07-26T18:19:35.293Z,2.40
2022-07-26T18:22:05.882Z,4.70
2022-07-26T18:24:33.609Z,3.90
2022-07-26T18:27:00.978Z,2.83
2022-07-26T18:29:28.358Z,5.07
2022-07-26T18:31:58.490Z,2.73
2022-07-26T18:34:25.987Z,7.67
2022-07-26T18:36:54.783Z,5.87
2022-07-26T18:39:22.174Z,5.67
2022-07-26T18:41:49.644Z,4.00
2022-07-26T18:44:17.029Z,3.20
2022-07-26T18:46:44.473Z,2.30
2022-07-26T18:49:19.793Z,3.53
2022-07-26T18:51:48.816Z,5.37
2022-07-26T18:54:17.783Z,3.97
2022-07-26T18:56:45.160Z,3.60
2022-07-26T18:59:12.879Z,5.10
2022-07-26T19:01:40.598Z,2.37
2022-07-26T19:04:08.364Z,5.63
2022-07-26T19:06:35.987Z,3.30
2022-07-26T19:09:03.502Z,4.97
2022-07-26T19:11:33.249Z,7.07
2022-07-26T19:14:05.198Z,3.53
2022-07-26T19:16:32.920Z,4.00
2022-07-26T19:19:00.330Z,3.80
2022-07-26T19:21:27.731Z,3.37
2022-07-26T19:23:55.110Z,3.17
2022-07-26T19:26:23.727Z,5.43
2022-07-26T19:28:52.519Z,4.40
2022-07-26T19:31:20.012Z,10.37
2022-07-26T19:33:47.463Z,16.17
2022-07-26T19:36:15.859Z,4.67
2022-07-26T19:38:52.655Z,5.93
2022-07-26T19:41:20.281Z,4.33
2022-07-26T19:43:47.905Z,3.87
2022-07-26T19:46:16.748Z,5.03
2022-07-26T19:48:44.255Z,2.83
2022-07-26T19:51:11.991Z,4.20
2022-07-26T19:53:39.392Z,2.20
2022-07-26T19:56:07.798Z,3.87
2022-07-26T19:58:35.207Z,4.07
2022-07-26T20:01:02.722Z,3.93
2022-07-26T20:03:31.495Z,3.50
2022-07-26T20:06:00.178Z,4.67
2022-07-26T20:08:27.931Z,8.67
2022-07-26T20:10:55.484Z,4.03
2022-07-26T20:13:23.862Z,2.43
2022-07-26T20:15:51.524Z,6.10
2022-07-26T20:18:21.935Z,3.80
2022-07-26T20:20:53.310Z,2.50
2022-07-26T20:23:20.703Z,2.47
2022-07-26T20:25:48.118Z,3.30
2022-07-26T20:28:15.534Z,3.40
2022-07-26T20:30:43.063Z,5.57
2022-07-26T20:33:10.603Z,3.40
2022-07-26T20:35:38.224Z,5.17
2022-07-26T20:38:06.951Z,3.90
2022-07-26T20:40:34.359Z,2.53
2022-07-26T20:43:01.753Z,4.37
2022-07-26T20:45:29.902Z,3.37
2022-07-26T20:47:57.326Z,5.30
2022-07-26T20:50:24.762Z,3.70
2022-07-26T20:52:52.193Z,6.40
2022-07-26T20:55:21.575Z,3.90
2022-07-26T20:57:49.890Z,3.57
2022-07-26T21:00:18.178Z,4.13
2022-07-26T21:02:45.680Z,4.33
2022-07-26T21:05:13.624Z,4.93
2022-07-26T21:07:55.073Z,2.80
2022-07-26T21:10:27.818Z,5.00
2022-07-26T21:12:57.206Z,3.93
2022-07-26T21:15:24.691Z,2.63
2022-07-26T21:17:52.452Z,4.10
2022-07-26T21:20:19.986Z,4.10
2022-07-26T21:22:47.633Z,4.43
2022-07-26T21:25:15.445Z,3.17
2022-07-26T21:27:44.151Z,3.13
2022-07-26T21:30:11.978Z,2.60
2022-07-26T21:32:39.459Z,3.80
2022-07-26T21:35:07.261Z,2.20
2022-07-26T21:37:34.689Z,3.30
2022-07-26T21:40:02.234Z,2.60
2022-07-26T21:42:29.663Z,4.03
2022-07-26T21:44:58.530Z,4.27
2022-07-26T21:47:25.909Z,5.60
2022-07-26T21:49:53.286Z,2.30
2022-07-26T21:52:20.694Z,6.97
2022-07-26T21:54:48.092Z,4.17
2022-07-26T21:57:15.470Z,2.60
2022-07-26T21:59:43.150Z,5.43
2022-07-26T22:02:11.891Z,2.30
2022-07-26T22:04:39.408Z,2.20
2022-07-26T22:07:06.830Z,3.50
2022-07-26T22:09:34.491Z,4.77
2022-07-26T22:12:01.849Z,2.50
2022-07-26T22:14:29.252Z,5.47
2022-07-26T22:16:56.731Z,1.87
2022-07-26T22:19:25.494Z,5.43
2022-07-26T22:21:53.276Z,2.30
2022-07-26T22:24:20.736Z,3.87
2022-07-26T22:26:48.123Z,2.87
2022-07-26T22:29:15.604Z,2.70
2022-07-26T22:31:43.063Z,4.40
2022-07-26T22:34:10.479Z,2.27
2022-07-26T22:36:45.086Z,2.87
2022-07-26T22:39:13.288Z,2.50
2022-07-26T22:42:05.049Z,2.60
2022-07-26T22:44:28.351Z,2.87
2022-07-26T22:46:55.815Z,2.27
2022-07-26T22:49:23.255Z,4.33
2022-07-26T22:51:52.019Z,2.07
2022-07-26T22:54:19.402Z,5.87
2022-07-26T22:56:46.983Z,2.07
2022-07-26T22:59:14.827Z,2.80
2022-07-26T23:01:43.047Z,1.90
2022-07-26T23:04:10.480Z,2.10
2022-07-26T23:06:38.193Z,1.37
2022-07-26T23:09:07.463Z,1.90
2022-07-26T23:11:34.927Z,2.00
2022-07-26T23:14:02.332Z,2.40
2022-07-26T23:16:29.750Z,9.17
2022-07-26T23:18:57.178Z,5.33
2022-07-26T23:21:24.568Z,1.40
2022-07-26T23:23:51.946Z,2.07
2022-07-26T23:26:20.927Z,4.60
2022-07-26T23:28:48.363Z,8.17
2022-07-26T23:31:15.752Z,2.53
2022-07-26T23:33:50.623Z,3.77
2022-07-26T23:36:18.613Z,1.70
2022-07-26T23:38:45.983Z,1.37
2022-07-26T23:41:13.361Z,1.33
2022-07-26T23:43:42.082Z,1.83
2022-07-26T23:46:09.457Z,5.23
2022-07-26T23:48:36.860Z,1.77
2022-07-26T23:51:04.572Z,1.70
2022-07-26T23:53:32.077Z,1.53
2022-07-26T23:55:59.575Z,1.97
2022-07-26T23:58:27.008Z,2.50
